Impacts TAF Board
For situational awareness. Not to be used for flight planning purposes.
IDs:

KMCB - McComb/Lewis Fld, MS, US

Issued at 0520 UTC 16 Oct 2018
Updated at 0752 UTC 16 Oct 2018
Potential Impact None Slight Moderate High
Time0653Z 16/08Z 16/09Z 16/10Z 16/11Z 16/12Z 16/13Z 16/14Z 16/15Z 16/16Z 16/17Z 16/18Z 16/19Z 16/20Z>>
Type OBS PRVL PRVL PRVL PRVL PRVL PRVL PRVL PRVL
  [PRB30]  
PRVL
  [PRB30]  
PRVL
  [PRB30]  
PRVL
  [PRB30]  
PRVL
  [PRB30]  
PRVL
  [PRB30]  
VIS 10 >6 5 5 5 5 5 5 >6
  [4]  
>6
  [4]  
>6
  [4]  
>6
  [4]  
>6
  [4]  
>6
  [4]  
CIG 8 20 10 10 10 10 10 10 12
  [8]  
12
  [8]  
12
  [8]  
12
  [8]  
12
  [8]  
12
  [8]  
Cover OVC BKN BKN BKN BKN BKN BKN BKN OVC
  [OVC]  
OVC
  [OVC]  
OVC
  [OVC]  
OVC
  [OVC]  
OVC
  [OVC]  
OVC
  [OVC]  
FltCat IFR MVFR MVFR MVFR MVFR MVFR MVFR MVFR MVFR
  [IFR]  
MVFR
  [IFR]  
MVFR
  [IFR]  
MVFR
  [IFR]  
MVFR
  [IFR]  
MVFR
  [IFR]  
WX -- VCSH BR VCSH BR VCSH BR VCSH BR VCSH BR VCSH BR VCSH --
  [-SHRA]  
--
  [-SHRA]  
--
  [-SHRA]  
--
  [-SHRA]  
--
  [-SHRA]  
--
  [-SHRA]  
WDir 10 10 20 20 20 20 20 20 30
[30]
30
[30]
30
[30]
30
[30]
30
[30]
30
[30]
WSpd 5 6 5 5 5 5 5 5 6
  [6]  
6
  [6]  
6
  [6]  
6
  [6]  
6
  [6]  
6
  [6]  
WGst -- -- -- -- -- -- -- -- --
  [--]  
--
  [--]  
--
  [--]  
--
  [--]  
--
  [--]  
--
  [--]  
Raw TAF
KMCB 160520Z 1606/1706 01006KT P6SM VCSH BKN020 BKN070
  FM160900 02005KT 5SM BR VCSH BKN010 BKN040
  FM161500 03006KT P6SM BKN012 OVC070
  PROB30 1615/1621 4SM -SHRA OVC008
  FM170000 01006KT P6SM BKN008 BKN090
  PROB30 1700/1706 4SM -SHRA OVC005


Raw METAR
KMCB 160653Z AUTO 01005KT 10SM OVC008 22/19 A3009 RMK AO2 CIG 008V013 SLP183 T02220194
KMCB 160553Z AUTO VRB04KT 10SM OVC010 23/19 A3008 RMK AO2 SLP180 T02330194 10244 20233 403110194 58005
KMCB 160513Z AUTO 36006KT 10SM BKN011 BKN019 OVC070 23/20 A3008 RMK AO2 T02330200
KMCB 160453Z AUTO 36006KT 10SM BKN070 BKN110 24/20 A3009 RMK AO2 SLP183 T02390200

METAR Board
Radar Display
Forecast Discussion
For situational awareness. Not to be used for flight planning purposes.